Time;durP1;ratioP1;P1;durP2;ratioP2;P2;SDS_P1;SDS_P2;PMS_P1;PMS_P2;Temp;Humidity;BMP_temperature;BMP_pressure;BME280_temperature;BME280_humidity;BME280_pressure;Samples;Min_cycle;Max_cycle;Signal;HPM_P1;HPM_P2
2024/01/02 00:00:18;;;;;;;;;;;11.70;88.70;;;;;;5037133;28;19909;-78
2024/01/02 00:02:43;;;;;;;;;;;11.80;88.80;;;;;;5019376;28;19916;-78
2024/01/02 00:05:09;;;;;;;;;;;11.70;88.70;;;;;;5034700;28;19992;-78
2024/01/02 00:07:34;;;;;;;;;;;11.70;88.60;;;;;;5019079;28;19948;-78
2024/01/02 00:10:00;;;;;;;;;;;11.70;88.70;;;;;;5019113;28;19913;-79
2024/01/02 00:12:25;;;;;;;;;;;11.70;88.60;;;;;;5019141;28;19909;-78
2024/01/02 00:14:54;;;;;;;;;;;11.70;88.70;;;;;;5019237;28;19913;-78
2024/01/02 00:17:19;;;;;;;;;;;11.70;88.60;;;;;;5019093;28;19916;-77
2024/01/02 00:19:44;;;;;;;;;;;11.70;88.70;;;;;;5019089;28;19999;-78
2024/01/02 00:22:10;;;;;;;;;;;11.70;88.70;;;;;;5019197;28;20162;-78
2024/01/02 00:24:35;;;;;;;;;;;11.80;88.80;;;;;;5019016;28;20011;-77
2024/01/02 00:27:02;;;;;;;;;;;11.70;88.70;;;;;;5018879;28;19920;-78
2024/01/02 00:29:27;;;;;;;;;;;11.60;88.60;;;;;;5018862;28;19917;-79
2024/01/02 00:31:53;;;;;;;;;;;11.60;88.70;;;;;;5018811;28;19963;-78
2024/01/02 00:34:18;;;;;;;;;;;11.70;88.70;;;;;;5018830;28;19932;-78
2024/01/02 00:36:44;;;;;;;;;;;11.70;88.60;;;;;;5036368;28;20391;-78
2024/01/02 00:39:09;;;;;;;;;;;11.70;88.80;;;;;;5018663;28;19910;-78
2024/01/02 00:41:35;;;;;;;;;;;11.60;88.80;;;;;;5018741;28;19963;-78
2024/01/02 00:44:00;;;;;;;;;;;11.70;88.70;;;;;;5018297;28;20007;-78
2024/01/02 00:46:25;;;;;;;;;;;11.70;88.70;;;;;;5036141;28;19909;-78
2024/01/02 00:48:51;;;;;;;;;;;11.70;88.70;;;;;;5036539;28;20284;-79
2024/01/02 00:51:16;;;;;;;;;;;11.70;88.60;;;;;;5018749;28;19916;-78
2024/01/02 00:53:42;;;;;;;;;;;11.70;88.50;;;;;;5018561;28;19916;-78
2024/01/02 00:56:07;;;;;;;;;;;11.70;88.60;;;;;;5017752;28;19909;-78
2024/01/02 00:58:32;;;;;;;;;;;11.70;88.60;;;;;;5018123;28;19940;-78
2024/01/02 01:00:58;;;;;;;;;;;11.70;88.50;;;;;;5018312;28;20009;-78
2024/01/02 01:03:23;;;;;;;;;;;11.70;88.60;;;;;;5018146;28;19909;-78
2024/01/02 01:05:49;;;;;;;;;;;11.70;88.50;;;;;;5018113;28;19959;-77
2024/01/02 01:08:14;;;;;;;;;;;11.70;88.60;;;;;;5018106;28;19909;-77
2024/01/02 01:10:39;;;;;;;;;;;11.70;88.50;;;;;;5018084;28;19909;-78
2024/01/02 01:13:05;;;;;;;;;;;11.70;88.50;;;;;;5018067;28;19988;-78
2024/01/02 01:15:30;;;;;;;;;;;11.70;88.50;;;;;;5018154;28;19913;-78
2024/01/02 01:17:56;;;;;;;;;;;11.70;88.40;;;;;;5017883;28;19916;-78
2024/01/02 01:20:21;;;;;;;;;;;11.70;88.40;;;;;;5017851;28;19917;-78
2024/01/02 01:22:46;;;;;;;;;;;11.70;88.30;;;;;;5018137;28;19909;-78
2024/01/02 01:25:12;;;;;;;;;;;11.70;88.40;;;;;;5017893;28;20321;-78
2024/01/02 01:27:37;;;;;;;;;;;11.70;88.40;;;;;;5017779;28;19910;-78
2024/01/02 01:30:03;;;;;;;;;;;11.70;88.40;;;;;;5017607;28;19963;-78
2024/01/02 01:32:29;;;;;;;;;;;11.70;88.40;;;;;;5017909;28;19963;-78
2024/01/02 01:34:54;;;;;;;;;;;11.70;88.40;;;;;;5017758;28;20309;-78
2024/01/02 01:37:19;;;;;;;;;;;11.70;88.40;;;;;;5017425;28;20389;-78
2024/01/02 01:39:45;;;;;;;;;;;11.70;88.40;;;;;;5035491;28;20358;-79
2024/01/02 01:42:10;;;;;;;;;;;11.70;88.30;;;;;;5017662;28;19935;-78
2024/01/02 01:44:36;;;;;;;;;;;11.70;88.20;;;;;;5017094;28;19913;-78
2024/01/02 01:47:04;;;;;;;;;;;11.70;88.30;;;;;;5017309;28;19918;-78
2024/01/02 01:49:30;;;;;;;;;;;11.70;88.20;;;;;;5017676;28;19913;-79
2024/01/02 01:51:56;;;;;;;;;;;11.70;88.40;;;;;;5017423;28;19916;-78
2024/01/02 01:54:22;;;;;;;;;;;11.70;88.40;;;;;;5017382;28;20361;-78
2024/01/02 01:56:47;;;;;;;;;;;11.70;88.40;;;;;;5017278;28;19913;-78
2024/01/02 01:59:13;;;;;;;;;;;11.70;88.30;;;;;;5017232;28;20293;-79
2024/01/02 02:01:38;;;;;;;;;;;11.70;88.40;;;;;;5017603;28;19985;-78
2024/01/02 02:04:04;;;;;;;;;;;11.70;88.40;;;;;;5017204;28;20385;-78
2024/01/02 02:06:30;;;;;;;;;;;11.70;88.30;;;;;;5016103;28;19913;-77
2024/01/02 02:08:55;;;;;;;;;;;11.70;88.40;;;;;;5017174;28;19916;-78
2024/01/02 02:11:21;;;;;;;;;;;11.70;88.30;;;;;;5017169;28;19963;-78
2024/01/02 02:13:47;;;;;;;;;;;11.70;88.20;;;;;;5034696;28;20578;-78
2024/01/02 02:16:13;;;;;;;;;;;11.70;88.30;;;;;;5016785;28;19909;-78
2024/01/02 02:18:39;;;;;;;;;;;11.60;88.30;;;;;;5075199;23;19960;-78
2024/01/02 02:21:04;;;;;;;;;;;11.70;88.40;;;;;;5053134;28;19959;-78
2024/01/02 02:23:29;;;;;;;;;;;11.70;88.40;;;;;;5053146;28;19979;-79
2024/01/02 02:25:55;;;;;;;;;;;11.70;88.30;;;;;;5052836;28;19916;-78
2024/01/02 02:28:20;;;;;;;;;;;11.70;88.40;;;;;;5055956;28;19957;-78
2024/01/02 02:30:46;;;;;;;;;;;11.70;88.40;;;;;;5073160;28;19953;-78
2024/01/02 02:33:11;;;;;;;;;;;11.70;88.40;;;;;;5073045;28;19915;-78
2024/01/02 02:35:36;;;;;;;;;;;11.70;88.40;;;;;;5073117;28;20007;-79
2024/01/02 02:38:02;;;;;;;;;;;11.70;88.40;;;;;;5072638;28;20321;-77
2024/01/02 02:40:28;;;;;;;;;;;11.70;88.40;;;;;;5072945;28;20433;-79
2024/01/02 02:42:53;;;;;;;;;;;11.70;88.30;;;;;;5072763;28;19908;-78
2024/01/02 02:45:18;;;;;;;;;;;11.70;88.30;;;;;;5073604;28;20322;-78
2024/01/02 02:47:44;;;;;;;;;;;11.70;88.30;;;;;;5072878;28;19958;-77
2024/01/02 02:50:09;;;;;;;;;;;11.70;88.30;;;;;;5073857;28;20007;-77
2024/01/02 02:52:35;;;;;;;;;;;11.70;88.40;;;;;;5072698;28;19915;-78
2024/01/02 02:55:00;;;;;;;;;;;11.70;88.30;;;;;;5072608;28;20389;-78
2024/01/02 02:57:26;;;;;;;;;;;11.60;88.30;;;;;;5072452;28;19908;-78
2024/01/02 02:59:51;;;;;;;;;;;11.70;88.30;;;;;;5072715;28;20253;-79
2024/01/02 03:02:17;;;;;;;;;;;11.70;88.40;;;;;;5072380;28;19909;-78
2024/01/02 03:04:42;;;;;;;;;;;11.70;88.30;;;;;;5073901;28;19925;-78
2024/01/02 03:07:09;;;;;;;;;;;11.70;88.40;;;;;;5072162;28;19908;-79
2024/01/02 03:09:34;;;;;;;;;;;11.60;88.20;;;;;;5072426;28;19935;-79
2024/01/02 03:11:59;;;;;;;;;;;11.70;88.30;;;;;;5072361;28;20369;-78
2024/01/02 03:14:25;;;;;;;;;;;12.10;88.60;;;;;;5072578;28;19912;-78
2024/01/02 03:16:50;;;;;;;;;;;11.70;88.40;;;;;;5072234;28;19915;-78
2024/01/02 03:19:16;;;;;;;;;;;11.70;88.40;;;;;;5072004;28;19916;-78
2024/01/02 03:21:41;;;;;;;;;;;11.70;88.40;;;;;;5072303;28;20257;-79
2024/01/02 03:24:06;;;;;;;;;;;11.70;88.30;;;;;;5072400;28;19951;-78
2024/01/02 03:26:32;;;;;;;;;;;11.70;88.40;;;;;;5072224;28;20016;-77
2024/01/02 03:28:57;;;;;;;;;;;11.70;88.30;;;;;;5072275;28;19948;-78
2024/01/02 03:31:23;;;;;;;;;;;11.70;88.30;;;;;;5072063;28;19962;-78
2024/01/02 03:33:48;;;;;;;;;;;11.70;88.30;;;;;;5072361;28;19908;-78
2024/01/02 03:36:20;;;;;;;;;;;11.70;88.30;;;;;;5072417;28;19966;-77
2024/01/02 03:38:46;;;;;;;;;;;11.70;88.40;;;;;;5072107;28;19909;-78
2024/01/02 03:41:12;;;;;;;;;;;11.70;88.30;;;;;;5072340;28;19909;-79
2024/01/02 03:43:37;;;;;;;;;;;11.70;88.30;;;;;;5071841;28;19912;-78
2024/01/02 03:46:03;;;;;;;;;;;11.70;88.30;;;;;;5072075;28;19915;-77
2024/01/02 03:48:28;;;;;;;;;;;11.70;88.30;;;;;;5073191;28;19912;-78
2024/01/02 03:50:53;;;;;;;;;;;11.70;88.30;;;;;;5072023;28;19913;-78
2024/01/02 03:53:19;;;;;;;;;;;11.70;88.30;;;;;;5072140;28;19908;-78
2024/01/02 03:55:44;;;;;;;;;;;11.70;88.30;;;;;;5072721;28;19917;-78
2024/01/02 03:58:10;;;;;;;;;;;11.70;88.40;;;;;;5067074;28;19916;-79
2024/01/02 04:00:35;;;;;;;;;;;11.70;88.30;;;;;;5069625;28;19962;-78
2024/01/02 04:03:00;;;;;;;;;;;11.70;88.20;;;;;;5072110;28;19930;-78
2024/01/02 04:05:27;;;;;;;;;;;11.70;88.30;;;;;;5071960;28;19965;-77
2024/01/02 04:07:53;;;;;;;;;;;11.70;88.40;;;;;;5071630;28;19958;-78
2024/01/02 04:10:18;;;;;;;;;;;11.70;88.30;;;;;;5071614;28;19908;-78
2024/01/02 04:12:43;;;;;;;;;;;11.70;88.30;;;;;;5071999;28;20378;-78
2024/01/02 04:15:09;;;;;;;;;;;11.70;88.20;;;;;;5072107;28;19916;-78
2024/01/02 04:17:34;;;;;;;;;;;11.70;88.40;;;;;;5071914;28;19919;-78
2024/01/02 04:20:00;;;;;;;;;;;11.70;88.20;;;;;;5071970;28;19917;-78
2024/01/02 04:22:25;;;;;;;;;;;11.70;88.10;;;;;;5072025;28;19915;-78
2024/01/02 04:24:50;;;;;;;;;;;11.60;88.30;;;;;;5072026;28;19913;-78
2024/01/02 04:27:16;;;;;;;;;;;11.60;88.10;;;;;;5071773;28;19983;-77
2024/01/02 04:29:41;;;;;;;;;;;11.70;88.30;;;;;;5072434;28;19916;-78
2024/01/02 04:32:08;;;;;;;;;;;11.70;88.30;;;;;;5075617;28;20347;-78
2024/01/02 04:34:33;;;;;;;;;;;11.70;87.90;;;;;;5076826;28;19955;-78
2024/01/02 04:36:58;;;;;;;;;;;11.60;87.80;;;;;;5075281;28;19908;-78
2024/01/02 04:39:24;;;;;;;;;;;11.70;88.30;;;;;;5075230;28;19912;-77
2024/01/02 04:41:50;;;;;;;;;;;11.60;88.10;;;;;;5075400;28;19908;-78
2024/01/02 04:44:15;;;;;;;;;;;11.60;88.10;;;;;;5074838;28;19913;-78
2024/01/02 04:46:41;;;;;;;;;;;11.70;88.20;;;;;;5074929;28;19919;-77
2024/01/02 04:49:06;;;;;;;;;;;11.70;88.30;;;;;;5075080;28;19959;-78
2024/01/02 04:51:32;;;;;;;;;;;11.70;88.20;;;;;;5076356;28;20038;-78
2024/01/02 04:53:57;;;;;;;;;;;11.70;88.30;;;;;;5075146;28;19909;-78
2024/01/02 04:56:23;;;;;;;;;;;11.60;88.30;;;;;;5074661;28;19916;-78
2024/01/02 04:58:48;;;;;;;;;;;11.70;88.20;;;;;;5074825;28;20315;-78
2024/01/02 05:01:14;;;;;;;;;;;11.70;88.10;;;;;;5074841;28;20337;-78
2024/01/02 05:03:39;;;;;;;;;;;11.70;88.20;;;;;;5074788;28;19916;-78
2024/01/02 05:06:05;;;;;;;;;;;11.70;88.20;;;;;;5074551;28;19915;-78
2024/01/02 05:08:30;;;;;;;;;;;11.70;88.30;;;;;;5074665;28;19954;-79
2024/01/02 05:10:56;;;;;;;;;;;11.60;88.30;;;;;;5074642;28;19909;-79
2024/01/02 05:13:21;;;;;;;;;;;11.70;88.10;;;;;;5074839;28;19908;-78
2024/01/02 05:15:46;;;;;;;;;;;11.70;88.20;;;;;;5075984;28;19908;-77
2024/01/02 05:18:12;;;;;;;;;;;11.70;88.20;;;;;;5074592;28;20003;-78
2024/01/02 05:20:37;;;;;;;;;;;11.60;88.10;;;;;;5074428;28;20262;-78
2024/01/02 05:23:04;;;;;;;;;;;11.60;88.00;;;;;;5074709;28;20369;-77
2024/01/02 05:25:33;;;;;;;;;;;11.70;88.30;;;;;;5074552;28;19959;-78
2024/01/02 05:27:58;;;;;;;;;;;11.60;87.70;;;;;;5074326;28;19908;-78
2024/01/02 05:30:24;;;;;;;;;;;11.60;88.20;;;;;;5074357;28;19913;-78
2024/01/02 05:32:50;;;;;;;;;;;11.60;88.00;;;;;;5073232;28;19909;-78
2024/01/02 05:35:16;;;;;;;;;;;11.70;88.10;;;;;;5074030;28;19915;-78
2024/01/02 05:37:41;;;;;;;;;;;11.60;88.60;;;;;;5073677;28;19909;-78
2024/01/02 05:40:09;;;;;;;;;;;11.60;87.90;;;;;;5073490;28;19908;-79
2024/01/02 05:42:34;;;;;;;;;;;11.70;88.20;;;;;;5075175;28;20054;-78
2024/01/02 05:45:00;;;;;;;;;;;11.60;88.20;;;;;;5073435;28;19912;-78
2024/01/02 05:47:25;;;;;;;;;;;11.60;88.20;;;;;;5073583;28;19908;-79
2024/01/02 05:49:50;;;;;;;;;;;11.60;88.10;;;;;;5073658;28;20319;-78
2024/01/02 05:52:16;;;;;;;;;;;11.70;88.10;;;;;;5073705;28;20361;-79
2024/01/02 05:54:42;;;;;;;;;;;11.60;88.10;;;;;;5073583;28;19908;-78
2024/01/02 05:57:07;;;;;;;;;;;11.60;88.10;;;;;;5073125;28;19916;-79
2024/01/02 05:59:34;;;;;;;;;;;11.60;88.00;;;;;;5072830;28;19909;-78
2024/01/02 06:01:59;;;;;;;;;;;11.60;88.10;;;;;;5072414;28;19909;-78
2024/01/02 06:04:43;;;;;;;;;;;11.70;88.00;;;;;;5071955;28;19924;-80
2024/01/02 06:07:08;;;;;;;;;;;11.70;88.30;;;;;;5072396;28;19908;-78
2024/01/02 06:09:34;;;;;;;;;;;11.60;88.10;;;;;;5071954;28;19970;-78
2024/01/02 06:12:00;;;;;;;;;;;11.60;88.10;;;;;;5067711;28;19912;-78
2024/01/02 06:14:26;;;;;;;;;;;11.60;87.90;;;;;;5065871;28;19920;-78
2024/01/02 06:16:52;;;;;;;;;;;11.70;88.20;;;;;;5070094;28;19915;-77
2024/01/02 06:19:18;;;;;;;;;;;11.60;88.00;;;;;;5071235;28;20007;-79
2024/01/02 06:21:44;;;;;;;;;;;11.60;88.10;;;;;;5070451;28;19912;-77
2024/01/02 06:24:10;;;;;;;;;;;11.70;88.20;;;;;;5053262;28;19913;-79
2024/01/02 06:26:36;;;;;;;;;;;11.60;87.80;;;;;;5050665;28;19912;-78
2024/01/02 06:29:01;;;;;;;;;;;11.50;88.10;;;;;;5053195;28;20319;-80
2024/01/02 06:31:27;;;;;;;;;;;11.60;88.00;;;;;;5052495;28;19913;-79
2024/01/02 06:33:52;;;;;;;;;;;11.60;88.10;;;;;;5062157;28;19916;-79
2024/01/02 06:36:18;;;;;;;;;;;11.60;87.90;;;;;;5071043;28;20007;-80
2024/01/02 06:38:43;;;;;;;;;;;11.60;88.10;;;;;;5069281;28;19998;-78
2024/01/02 06:41:09;;;;;;;;;;;11.60;88.00;;;;;;5068732;28;19913;-78
2024/01/02 06:43:35;;;;;;;;;;;11.60;87.80;;;;;;5049709;28;19913;-78
2024/01/02 06:46:02;;;;;;;;;;;11.60;88.10;;;;;;5050284;28;20223;-77
2024/01/02 06:48:28;;;;;;;;;;;11.60;88.10;;;;;;5050357;28;19944;-77
2024/01/02 06:50:54;;;;;;;;;;;11.60;88.10;;;;;;5048354;28;20030;-78
2024/01/02 06:53:20;;;;;;;;;;;11.60;88.00;;;;;;5047222;28;20734;-77
2024/01/02 06:55:45;;;;;;;;;;;11.60;88.00;;;;;;5049729;28;20005;-78
2024/01/02 06:58:11;;;;;;;;;;;11.60;87.90;;;;;;5045974;28;19912;-78
2024/01/02 07:00:37;;;;;;;;;;;11.60;88.10;;;;;;5046446;28;20369;-79
2024/01/02 07:03:03;;;;;;;;;;;11.60;88.00;;;;;;5046494;28;19913;-79
2024/01/02 07:05:30;;;;;;;;;;;11.60;88.10;;;;;;5046860;28;19917;-78
2024/01/02 07:07:56;;;;;;;;;;;11.60;88.10;;;;;;5045409;28;20007;-78
2024/01/02 07:10:24;;;;;;;;;;;11.60;87.80;;;;;;5062313;28;19997;-78
2024/01/02 07:12:50;;;;;;;;;;;11.60;88.00;;;;;;5071087;28;19918;-79
2024/01/02 07:15:16;;;;;;;;;;;11.60;88.00;;;;;;5074222;28;19909;-79
2024/01/02 07:17:42;;;;;;;;;;;11.60;88.10;;;;;;5073785;28;20004;-81
2024/01/02 07:20:08;;;;;;;;;;;11.70;88.20;;;;;;5061254;23;19964;-79
2024/01/02 07:22:33;;;;;;;;;;;11.60;88.10;;;;;;5034618;28;19961;-79
2024/01/02 07:25:02;;;;;;;;;;;11.60;88.20;;;;;;5033607;28;19921;-79
2024/01/02 07:27:28;;;;;;;;;;;11.60;88.10;;;;;;5035319;28;19957;-80
2024/01/02 07:30:12;;;;;;;;;;;;;;;;;;;;;
2024/01/02 07:35:44;;;;;;;;;;;11.70;88.20;;;;;;5036932;28;19916;-80
2024/01/02 07:38:25;;;;;;;;;;;;;;;;;;;;;
2024/01/02 07:40:51;;;;;;;;;;;11.50;88.00;;;;;;5034234;28;19915;-80
2024/01/02 07:43:40;;;;;;;;;;;11.60;88.10;;;;;;5030241;28;20023;-79
2024/01/02 07:46:22;;;;;;;;;;;11.40;88.10;;;;;;5031172;28;19913;-79
2024/01/02 07:51:23;;;;;;;;;;;11.60;88.20;;;;;;5011443;28;19929;-79
2024/01/02 08:09:01;;;;;;;;;;;10.10;87.50;;;;;;4959067;28;19921;-79
2024/01/02 08:11:32;;;;;;;;;;;11.70;88.40;;;;;;4998865;28;20402;-79
2024/01/02 08:20:19;;;;;;;;;;;11.30;88.10;;;;;;4920320;29;19970;-78
2024/01/02 08:25:50;;;;;;;;;;;11.60;88.40;;;;;;5018976;28;19920;-79
2024/01/02 08:28:29;;;;;;;;;;;11.60;88.40;;;;;;4999299;28;19914;-79
2024/01/02 08:31:01;;;;;;;;;;;11.60;88.50;;;;;;5002833;28;20397;-80
2024/01/02 08:33:33;;;;;;;;;;;11.70;88.50;;;;;;5001709;28;20041;-79
2024/01/02 08:36:06;;;;;;;;;;;11.60;88.50;;;;;;5000380;28;19909;-79
2024/01/02 08:41:36;;;;;;;;;;;11.60;88.50;;;;;;5018315;28;19909;-79
2024/01/02 08:44:17;;;;;;;;;;;11.60;88.50;;;;;;5016761;28;19913;-79
2024/01/02 08:47:03;;;;;;;;;;;11.60;88.50;;;;;;5000583;28;19909;-79
2024/01/02 08:52:19;;;;;;;;;;;11.60;88.60;;;;;;5020734;28;19930;-79
2024/01/02 08:55:06;;;;;;;;;;;11.60;88.60;;;;;;5003300;28;19944;-79
2024/01/02 09:03:48;;;;;;;;;;;11.90;88.80;;;;;;4999326;28;20294;-79
2024/01/02 09:09:28;;;;;;;;;;;11.60;88.60;;;;;;4997792;28;19960;-80
2024/01/02 09:12:20;;;;;;;;;;;11.60;88.70;;;;;;4977812;28;19913;-79
2024/01/02 09:15:36;;;;;;;;;;;11.80;88.80;;;;;;4896460;29;20424;-78
2024/01/02 09:18:30;;;;;;;;;;;11.60;88.70;;;;;;4991236;28;20325;-78
2024/01/02 09:21:17;;;;;;;;;;;11.50;88.70;;;;;;4977011;28;20448;-79
2024/01/02 09:23:53;;;;;;;;;;;11.60;88.80;;;;;;4978163;28;19910;-79
2024/01/02 09:26:31;;;;;;;;;;;12.40;89.30;;;;;;4980382;28;19922;-79
2024/01/02 09:29:21;;;;;;;;;;;11.60;88.80;;;;;;4981393;28;20485;-79
2024/01/02 09:31:50;;;;;;;;;;;11.80;88.90;;;;;;4979794;28;19921;-80
2024/01/02 09:34:28;;;;;;;;;;;11.60;88.80;;;;;;4979961;28;19917;-79
2024/01/02 09:37:04;;;;;;;;;;;11.60;88.80;;;;;;4979770;28;19914;-80
2024/01/02 09:39:51;;;;;;;;;;;11.70;88.90;;;;;;4982088;28;19918;-78
2024/01/02 09:49:14;;;;;;;;;;;11.70;89.00;;;;;;4958850;28;19913;-80
2024/01/02 09:55:20;;;;;;;;;;;11.60;88.90;;;;;;4900393;29;19917;-80
2024/01/02 09:57:53;;;;;;;;;;;11.60;88.90;;;;;;4915873;28;19909;-80
2024/01/02 10:00:26;;;;;;;;;;;11.70;88.90;;;;;;4979985;28;20001;-80
2024/01/02 10:02:57;;;;;;;;;;;11.60;88.90;;;;;;4981153;28;19916;-79
2024/01/02 10:05:29;;;;;;;;;;;11.60;88.90;;;;;;4984041;28;19913;-80
2024/01/02 10:08:15;;;;;;;;;;;11.70;89.00;;;;;;4998321;28;19914;-80
2024/01/02 10:11:01;;;;;;;;;;;11.60;88.90;;;;;;4983719;28;19957;-79
2024/01/02 10:13:40;;;;;;;;;;;11.50;88.80;;;;;;4980201;28;19914;-80
2024/01/02 10:16:27;;;;;;;;;;;11.60;88.90;;;;;;4967772;28;19914;-78
2024/01/02 10:28:31;;;;;;;;;;;11.70;88.80;;;;;;4998471;28;19929;-77
2024/01/02 10:31:12;;;;;;;;;;;11.70;88.80;;;;;;4978309;28;19921;-79
2024/01/02 10:33:40;;;;;;;;;;;11.70;88.80;;;;;;4979798;28;19916;-77
2024/01/02 10:36:35;;;;;;;;;;;11.80;88.90;;;;;;4979114;28;19964;-78
2024/01/02 10:42:35;;;;;;;;;;;11.70;88.80;;;;;;4986195;28;19949;-79
2024/01/02 10:45:47;;;;;;;;;;;11.60;88.80;;;;;;4980054;28;19917;-79
2024/01/02 10:48:25;;;;;;;;;;;11.60;88.80;;;;;;4902955;29;20472;-79
2024/01/02 10:51:11;;;;;;;;;;;11.70;88.90;;;;;;4973458;28;19914;-78
2024/01/02 10:53:45;;;;;;;;;;;11.60;88.80;;;;;;4978454;28;19914;-78
2024/01/02 10:56:13;;;;;;;;;;;13.00;89.60;;;;;;4977753;28;19937;-78
2024/01/02 10:59:11;;;;;;;;;;;11.70;88.90;;;;;;4979402;28;20298;-78
2024/01/02 11:01:37;;;;;;;;;;;11.70;88.90;;;;;;4950412;28;19913;-77
2024/01/02 11:04:19;;;;;;;;;;;11.90;89.00;;;;;;4977586;28;19967;-78
2024/01/02 11:06:48;;;;;;;;;;;11.70;88.90;;;;;;4978919;28;19910;-78
2024/01/02 11:09:32;;;;;;;;;;;11.70;88.80;;;;;;4978080;28;19921;-78
2024/01/02 11:12:23;;;;;;;;;;;11.70;88.90;;;;;;4975838;28;19910;-78
2024/01/02 11:14:48;;;;;;;;;;;11.90;89.10;;;;;;4993550;28;19910;-79
2024/01/02 11:17:15;;;;;;;;;;;12.40;89.30;;;;;;4975625;28;19910;-80
2024/01/02 11:19:48;;;;;;;;;;;11.70;88.90;;;;;;4980455;28;20034;-79
2024/01/02 11:22:17;;;;;;;;;;;11.70;88.90;;;;;;4979897;28;19921;-79
2024/01/02 11:24:47;;;;;;;;;;;11.80;89.00;;;;;;4996159;28;19963;-79
2024/01/02 11:27:13;;;;;;;;;;;11.90;89.00;;;;;;4979197;28;20479;-79
2024/01/02 11:29:43;;;;;;;;;;;12.00;89.10;;;;;;4979750;28;19910;-79
2024/01/02 11:32:11;;;;;;;;;;;11.70;88.90;;;;;;4979135;28;19917;-79
2024/01/02 11:34:47;;;;;;;;;;;11.70;88.90;;;;;;4982494;28;19910;-79
2024/01/02 11:37:45;;;;;;;;;;;12.30;89.30;;;;;;4982238;28;19920;-79
2024/01/02 11:40:39;;;;;;;;;;;;;;;;;;;;;
2024/01/02 11:43:10;;;;;;;;;;;11.70;89.00;;;;;;4981081;28;19910;-80
2024/01/02 11:45:37;;;;;;;;;;;11.80;89.00;;;;;;4966968;28;19918;-79
2024/01/02 11:48:21;;;;;;;;;;;11.80;89.00;;;;;;4967134;28;20359;-79
2024/01/02 11:51:04;;;;;;;;;;;11.70;88.90;;;;;;4963843;28;19949;-79
2024/01/02 11:53:33;;;;;;;;;;;11.70;88.90;;;;;;4965832;28;19973;-79
2024/01/02 11:56:07;;;;;;;;;;;11.70;88.90;;;;;;4983435;28;19912;-78
2024/01/02 11:58:35;;;;;;;;;;;11.70;88.90;;;;;;4962361;28;19942;-79
2024/01/02 12:01:13;;;;;;;;;;;11.70;89.00;;;;;;4964844;28;20289;-79
2024/01/02 12:03:47;;;;;;;;;;;11.60;88.80;;;;;;4964385;28;19965;-79
2024/01/02 12:06:25;;;;;;;;;;;11.80;89.00;;;;;;4962299;28;19914;-78
2024/01/02 12:08:59;;;;;;;;;;;11.70;88.90;;;;;;4962598;28;19910;-77
2024/01/02 12:11:36;;;;;;;;;;;11.80;89.00;;;;;;4976869;28;19913;-80
2024/01/02 12:14:08;;;;;;;;;;;11.70;89.00;;;;;;4985929;28;19933;-80
2024/01/02 12:16:38;;;;;;;;;;;11.70;88.90;;;;;;4987225;28;19917;-79
2024/01/02 12:19:06;;;;;;;;;;;11.80;89.00;;;;;;4982259;28;19910;-78
2024/01/02 12:21:39;;;;;;;;;;;12.60;89.50;;;;;;4981463;28;19965;-80
2024/01/02 12:24:20;;;;;;;;;;;11.70;89.00;;;;;;4982957;28;20388;-78
2024/01/02 12:26:50;;;;;;;;;;;11.70;89.40;;;;;;4982363;28;19910;-79
2024/01/02 12:29:41;;;;;;;;;;;11.90;89.10;;;;;;4985535;28;19975;-78
2024/01/02 12:32:12;;;;;;;;;;;11.80;89.10;;;;;;4984133;28;20453;-78
2024/01/02 12:34:46;;;;;;;;;;;11.70;89.00;;;;;;4985051;28;19910;-79
2024/01/02 12:37:21;;;;;;;;;;;11.90;89.20;;;;;;4986031;28;19909;-78
2024/01/02 12:39:49;;;;;;;;;;;11.50;88.90;;;;;;5000800;28;19910;-80
2024/01/02 12:42:19;;;;;;;;;;;12.20;89.30;;;;;;5001587;28;19910;-80
2024/01/02 12:44:52;;;;;;;;;;;12.00;89.30;;;;;;5005052;28;19913;-78
2024/01/02 12:50:27;;;;;;;;;;;11.70;89.20;;;;;;5002206;28;19921;-81
2024/01/02 12:53:12;;;;;;;;;;;11.70;89.20;;;;;;4985402;28;19910;-80
2024/01/02 12:56:04;;;;;;;;;;;11.70;89.20;;;;;;4971160;28;19918;-80
2024/01/02 13:01:12;;;;;;;;;;;11.70;89.20;;;;;;5542577;23;19925;-79
2024/01/02 13:04:05;;;;;;;;;;;11.70;89.20;;;;;;5023655;28;19919;-80
2024/01/02 13:07:14;;;;;;;;;;;11.70;89.30;;;;;;5025457;28;19920;-80
2024/01/02 13:09:48;;;;;;;;;;;11.70;89.20;;;;;;5018513;28;19920;-79
2024/01/02 13:12:27;;;;;;;;;;;11.70;89.30;;;;;;5021240;28;20387;-80
2024/01/02 13:14:53;;;;;;;;;;;11.70;89.30;;;;;;5022186;28;20729;-79
2024/01/02 13:17:38;;;;;;;;;;;11.90;89.40;;;;;;5020712;28;19913;-80
2024/01/02 13:20:05;;;;;;;;;;;11.70;89.30;;;;;;5023254;28;19928;-79
2024/01/02 13:22:31;;;;;;;;;;;11.60;89.20;;;;;;5019238;28;19913;-79
2024/01/02 13:24:57;;;;;;;;;;;11.80;89.40;;;;;;5020258;28;19913;-79
2024/01/02 13:27:29;;;;;;;;;;;12.80;90.00;;;;;;5021037;28;19909;-79
2024/01/02 13:29:57;;;;;;;;;;;11.70;89.50;;;;;;5019853;28;19913;-78
2024/01/02 13:32:25;;;;;;;;;;;11.70;89.50;;;;;;5021862;28;19909;-79
2024/01/02 13:35:13;;;;;;;;;;;11.80;89.60;;;;;;5023754;28;19909;-80
2024/01/02 13:37:39;;;;;;;;;;;11.70;89.50;;;;;;5037896;28;19909;-79
2024/01/02 13:40:16;;;;;;;;;;;12.00;89.70;;;;;;5020017;28;19905;-79
2024/01/02 13:42:41;;;;;;;;;;;11.70;89.50;;;;;;5019852;28;19912;-79
2024/01/02 13:45:21;;;;;;;;;;;11.80;89.50;;;;;;5019614;28;19912;-79
2024/01/02 13:47:49;;;;;;;;;;;11.70;89.50;;;;;;5003431;28;20012;-79
2024/01/02 13:50:32;;;;;;;;;;;11.80;89.60;;;;;;5020351;28;20004;-79
2024/01/02 13:53:05;;;;;;;;;;;11.60;89.40;;;;;;5019987;28;19909;-80
2024/01/02 13:55:35;;;;;;;;;;;11.70;89.50;;;;;;5020378;28;20392;-77
2024/01/02 13:58:13;;;;;;;;;;;11.70;89.50;;;;;;5019851;28;19995;-79
2024/01/02 14:00:48;;;;;;;;;;;11.80;89.60;;;;;;5021893;28;19909;-80
2024/01/02 14:07:15;;;;;;;;;;;11.60;89.50;;;;;;4996484;28;19921;-77
2024/01/02 14:09:44;;;;;;;;;;;11.70;89.60;;;;;;5020655;28;19909;-79
2024/01/02 14:22:10;;;;;;;;;;;11.80;90.00;;;;;;4956126;29;19957;-80
2024/01/02 14:36:18;;;;;;;;;;;11.70;90.00;;;;;;5034753;23;19971;-79
2024/01/02 14:39:10;;;;;;;;;;;11.70;90.00;;;;;;4997763;28;19917;-79
2024/01/02 15:05:43;;;;;;;;;;;11.70;90.10;;;;;;4997458;28;19926;-80
2024/01/02 16:11:30;;;;;;;;;;;11.60;90.20;;;;;;5000780;28;20348;-79
2024/01/02 16:14:13;;;;;;;;;;;11.60;90.20;;;;;;5002156;28;20398;-80
2024/01/02 16:16:59;;;;;;;;;;;11.60;90.20;;;;;;5002064;28;19910;-79
2024/01/02 16:19:49;;;;;;;;;;;11.70;90.30;;;;;;5013039;28;19905;-80
2024/01/02 16:22:18;;;;;;;;;;;11.70;90.30;;;;;;5021552;28;19913;-80
2024/01/02 16:28:05;;;;;;;;;;;12.10;90.40;;;;;;5020814;28;20016;-80
2024/01/02 16:30:49;;;;;;;;;;;11.70;90.30;;;;;;5006211;28;19913;-80
2024/01/02 16:33:31;;;;;;;;;;;11.70;90.30;;;;;;5002108;28;19975;-80
2024/01/02 16:36:13;;;;;;;;;;;11.70;90.30;;;;;;5017917;28;19996;-80
2024/01/02 16:38:40;;;;;;;;;;;11.70;90.30;;;;;;5005645;28;19910;-81
2024/01/02 16:41:06;;;;;;;;;;;12.30;90.40;;;;;;5005229;28;19924;-80
2024/01/02 16:43:46;;;;;;;;;;;11.70;90.40;;;;;;5010357;28;19910;-81
2024/01/02 16:46:21;;;;;;;;;;;11.70;90.30;;;;;;5005621;28;19913;-79
2024/01/02 16:48:48;;;;;;;;;;;11.70;90.30;;;;;;5007696;28;19910;-79
2024/01/02 16:51:14;;;;;;;;;;;11.70;90.30;;;;;;5007624;28;19910;-80
2024/01/02 16:53:41;;;;;;;;;;;11.70;90.30;;;;;;5006280;28;19936;-80
2024/01/02 16:56:06;;;;;;;;;;;12.70;90.50;;;;;;5006851;28;19914;-79
2024/01/02 16:58:33;;;;;;;;;;;11.70;90.30;;;;;;5006104;28;19959;-80
2024/01/02 17:01:01;;;;;;;;;;;11.70;90.30;;;;;;5006673;28;19910;-80
2024/01/02 17:03:27;;;;;;;;;;;11.70;90.20;;;;;;5004702;28;19910;-80
2024/01/02 17:05:53;;;;;;;;;;;11.70;90.30;;;;;;5003909;28;19920;-79
2024/01/02 17:08:20;;;;;;;;;;;11.70;90.30;;;;;;5008691;28;19940;-80
2024/01/02 17:10:46;;;;;;;;;;;12.80;90.50;;;;;;5002584;28;19922;-80
2024/01/02 17:13:14;;;;;;;;;;;11.70;90.30;;;;;;5004254;28;19945;-79
2024/01/02 17:15:40;;;;;;;;;;;11.70;90.30;;;;;;4992886;28;19913;-80
2024/01/02 17:18:07;;;;;;;;;;;11.70;90.30;;;;;;5008467;28;20306;-80
2024/01/02 17:20:33;;;;;;;;;;;11.70;90.40;;;;;;5025114;28;19910;-80
2024/01/02 17:22:59;;;;;;;;;;;11.70;90.30;;;;;;5006348;28;19910;-81
2024/01/02 17:25:30;;;;;;;;;;;11.70;90.30;;;;;;5007175;28;19937;-80
2024/01/02 17:27:58;;;;;;;;;;;11.70;90.40;;;;;;4989864;28;19917;-80
2024/01/02 17:30:23;;;;;;;;;;;11.80;90.40;;;;;;5005031;28;19916;-81
2024/01/02 17:32:52;;;;;;;;;;;12.30;90.50;;;;;;5001846;28;19945;-80
2024/01/02 17:35:24;;;;;;;;;;;11.70;90.30;;;;;;5004523;28;19916;-80
2024/01/02 17:37:50;;;;;;;;;;;11.70;90.30;;;;;;5020005;28;19971;-79
2024/01/02 17:40:16;;;;;;;;;;;12.70;90.80;;;;;;4999151;28;19967;-79
2024/01/02 17:42:44;;;;;;;;;;;11.70;90.40;;;;;;5000831;28;20356;-79
2024/01/02 17:45:44;;;;;;;;;;;11.70;90.30;;;;;;5019122;28;19913;-80
2024/01/02 17:48:13;;;;;;;;;;;11.70;90.30;;;;;;4989795;28;19917;-78